createdAt,value
2019-04-22T00:00:32.808Z,69.10
2019-04-22T00:01:34.595Z,70.20
2019-04-22T00:02:43.554Z,70.50
2019-04-22T00:03:52.711Z,69.60
2019-04-22T00:05:02.270Z,69.90
2019-04-22T00:06:20.376Z,69.50
2019-04-22T00:07:28.933Z,70.50
2019-04-22T00:08:36.046Z,70.90
2019-04-22T00:09:45.952Z,71.10
2019-04-22T00:10:50.234Z,70.40
2019-04-22T00:11:56.056Z,69.70
2019-04-22T00:13:00.058Z,69.70
2019-04-22T00:14:00.670Z,70.10
2019-04-22T00:15:08.143Z,69.80
2019-04-22T00:16:19.823Z,69.80
2019-04-22T00:17:30.658Z,69.10
2019-04-22T00:18:42.880Z,69.40
2019-04-22T00:19:37.279Z,70.00
2019-04-22T00:20:43.911Z,69.40
2019-04-22T00:21:46.168Z,68.40
2019-04-22T00:22:51.850Z,68.00
2019-04-22T00:23:57.868Z,67.20
2019-04-22T00:25:10.060Z,67.60
2019-04-22T00:26:20.343Z,67.70
2019-04-22T00:27:24.371Z,67.00
2019-04-22T00:28:24.850Z,67.20
2019-04-22T00:30:02.471Z,67.40
2019-04-22T00:30:56.162Z,67.30
2019-04-22T00:32:24.622Z,67.50
2019-04-22T00:33:35.357Z,67.30
2019-04-22T00:34:35.882Z,68.10
2019-04-22T00:35:49.779Z,67.70
2019-04-22T00:36:54.844Z,68.90
2019-04-22T00:38:09.229Z,68.30
2019-04-22T00:39:07.469Z,68.10
2019-04-22T00:40:17.743Z,67.80
2019-04-22T00:41:26.717Z,68.10
2019-04-22T00:42:20.854Z,66.60
2019-04-22T00:43:32.729Z,66.10
2019-04-22T00:44:38.946Z,65.90
2019-04-22T00:47:50.383Z,66.20
2019-04-22T00:49:49.101Z,66.40
2019-04-22T00:51:12.321Z,67.70
2019-04-22T00:52:16.626Z,67.90
2019-04-22T00:54:43.948Z,67.90
2019-04-22T00:55:38.125Z,67.30
2019-04-22T00:56:42.139Z,68.20
2019-04-22T00:57:56.246Z,67.40
2019-04-22T00:58:50.274Z,67.90
2019-04-22T01:00:05.593Z,67.90
2019-04-22T01:01:17.424Z,67.90
2019-04-22T01:02:20.275Z,67.80
2019-04-22T01:03:27.482Z,67.90
2019-04-22T01:04:34.800Z,67.40
2019-04-22T01:05:34.192Z,66.90
2019-04-22T01:06:38.832Z,67.50
2019-04-22T01:07:49.953Z,66.90
2019-04-22T01:08:57.962Z,66.20
2019-04-22T01:10:07.494Z,66.90
2019-04-22T01:11:12.607Z,67.60
2019-04-22T01:12:14.171Z,66.60
2019-04-22T01:13:18.589Z,66.80
2019-04-22T01:14:25.048Z,67.60
2019-04-22T01:15:30.328Z,66.70
2019-04-22T01:16:39.266Z,67.30
2019-04-22T01:17:41.750Z,67.20
2019-04-22T01:18:52.277Z,67.10
2019-04-22T01:19:59.774Z,67.40
2019-04-22T01:22:06.709Z,66.00
2019-04-22T01:23:10.995Z,66.70
2019-04-22T01:24:20.778Z,67.80
2019-04-22T01:25:21.647Z,67.40
2019-04-22T01:26:25.370Z,67.40
2019-04-22T01:27:33.438Z,67.00
2019-04-22T01:28:38.703Z,66.70
2019-04-22T01:29:44.064Z,66.10
2019-04-22T01:30:46.872Z,66.30
2019-04-22T01:31:47.353Z,66.50
2019-04-22T01:32:57.915Z,66.80
2019-04-22T01:34:10.330Z,67.00
2019-04-22T01:35:19.632Z,66.00
2019-04-22T01:36:32.392Z,66.10
2019-04-22T01:37:34.577Z,66.40
2019-04-22T01:38:46.895Z,67.60
2019-04-22T01:40:00.164Z,67.40
2019-04-22T01:41:04.683Z,66.60
2019-04-22T01:42:06.224Z,66.30
2019-04-22T01:43:19.937Z,65.90
2019-04-22T01:44:27.957Z,66.40
2019-04-22T01:45:25.830Z,66.50
2019-04-22T01:46:32.070Z,66.10
2019-04-22T01:47:37.370Z,66.20
2019-04-22T01:48:50.596Z,66.70
2019-04-22T01:49:49.539Z,66.70
2019-04-22T01:50:50.095Z,66.90
2019-04-22T01:52:07.744Z,67.10
2019-04-22T01:53:16.386Z,67.00
2019-04-22T01:54:29.946Z,66.50
2019-04-22T01:55:27.439Z,66.50
2019-04-22T01:56:28.928Z,66.90
2019-04-22T01:57:30.398Z,67.60
2019-04-22T01:58:31.138Z,66.20
2019-04-22T01:59:35.584Z,65.90
2019-04-22T02:00:53.676Z,66.00
2019-04-22T02:01:55.044Z,66.20
2019-04-22T02:03:07.269Z,65.90
2019-04-22T02:04:15.227Z,65.80
2019-04-22T02:05:18.980Z,66.10
2019-04-22T02:06:22.758Z,65.80
2019-04-22T02:07:23.532Z,65.50
2019-04-22T02:08:40.560Z,65.50
2019-04-22T02:09:42.793Z,65.60
2019-04-22T02:10:52.616Z,65.70
2019-04-22T02:11:53.369Z,66.40
2019-04-22T02:12:53.304Z,65.90
2019-04-22T02:14:04.637Z,66.40
2019-04-22T02:15:06.601Z,66.70
2019-04-22T02:16:15.225Z,67.00
2019-04-22T02:17:26.537Z,66.40
2019-04-22T02:18:34.472Z,65.80
2019-04-22T02:20:35.893Z,66.10
2019-04-22T02:21:46.175Z,65.40
2019-04-22T02:23:42.865Z,66.50
2019-04-22T02:24:28.356Z,67.20
2019-04-22T02:25:32.771Z,67.00
2019-04-22T02:26:35.544Z,67.20
2019-04-22T02:27:43.763Z,67.00
2019-04-22T02:28:45.796Z,67.20
2019-04-22T02:29:52.303Z,66.70
2019-04-22T02:32:10.575Z,66.70
2019-04-22T02:33:46.594Z,66.30
2019-04-22T02:34:31.144Z,66.60
2019-04-22T02:35:45.939Z,66.70
2019-04-22T02:36:35.817Z,66.60
2019-04-22T02:39:47.096Z,67.10
2019-04-22T02:42:07.953Z,67.80
2019-04-22T02:43:21.906Z,66.90
2019-04-22T02:44:13.567Z,66.60
2019-04-22T02:45:18.205Z,66.50
2019-04-22T02:46:43.259Z,67.60
2019-04-22T02:47:27.119Z,67.00
2019-04-22T02:48:53.970Z,66.90
2019-04-22T02:50:02.369Z,66.60
2019-04-22T02:50:56.477Z,66.40
2019-04-22T02:51:52.302Z,66.80
2019-04-22T02:53:00.874Z,66.40
2019-04-22T02:54:36.425Z,66.20
2019-04-22T02:56:27.469Z,66.50
2019-04-22T02:58:46.958Z,65.90
2019-04-22T02:59:39.878Z,65.90
2019-04-22T03:00:46.240Z,66.00
2019-04-22T03:01:47.036Z,65.30
2019-04-22T03:03:13.718Z,65.30
2019-04-22T03:05:09.126Z,65.90
2019-04-22T03:07:14.693Z,66.70
2019-04-22T03:08:36.758Z,66.50
2019-04-22T03:10:47.326Z,65.60
2019-04-22T03:12:54.103Z,66.70
2019-04-22T03:14:03.283Z,67.00
2019-04-22T03:14:59.905Z,66.90
2019-04-22T03:17:22.103Z,66.40
2019-04-22T03:18:33.026Z,66.30
2019-04-22T03:20:34.821Z,66.10
2019-04-22T03:21:38.146Z,66.40
2019-04-22T03:22:46.879Z,66.60
2019-04-22T03:25:24.281Z,66.80
2019-04-22T03:26:11.909Z,67.00
2019-04-22T03:27:07.792Z,67.20
2019-04-22T03:28:26.702Z,67.70
2019-04-22T03:30:38.495Z,67.00
2019-04-22T03:32:16.557Z,67.10
2019-04-22T03:33:19.275Z,66.90
2019-04-22T03:35:31.717Z,67.50
2019-04-22T03:36:53.485Z,67.90
2019-04-22T03:37:43.229Z,67.20
2019-04-22T03:38:41.192Z,67.30
2019-04-22T03:39:45.651Z,66.90
2019-04-22T03:41:57.303Z,68.10
2019-04-22T03:42:55.720Z,68.10
2019-04-22T03:45:12.086Z,67.40
2019-04-22T03:46:14.615Z,67.80
2019-04-22T03:47:27.954Z,67.80
2019-04-22T03:48:30.543Z,68.00
2019-04-22T03:49:37.153Z,68.00
2019-04-22T03:51:45.707Z,66.60
2019-04-22T03:52:53.054Z,67.20
2019-04-22T03:54:02.813Z,67.20
2019-04-22T03:56:10.914Z,66.80
2019-04-22T03:58:05.436Z,67.00
2019-04-22T03:59:36.975Z,66.80
2019-04-22T04:03:50.670Z,67.30
2019-04-22T04:05:59.524Z,66.80
2019-04-22T04:08:26.458Z,66.60
2019-04-22T04:09:24.084Z,65.80
2019-04-22T04:11:32.257Z,66.40
2019-04-22T04:12:39.919Z,67.10
2019-04-22T04:13:41.630Z,67.20
2019-04-22T04:15:38.370Z,67.10
2019-04-22T04:20:21.810Z,67.20
2019-04-22T04:23:53.306Z,66.60
2019-04-22T04:25:05.773Z,65.80
2019-04-22T04:25:50.292Z,65.80
2019-04-22T04:27:06.724Z,65.90
2019-04-22T04:31:25.024Z,66.20
2019-04-22T04:32:41.622Z,67.60
2019-04-22T04:33:35.924Z,67.10
2019-04-22T04:34:56.295Z,67.50
2019-04-22T04:35:56.658Z,67.60
2019-04-22T04:36:54.945Z,68.20
2019-04-22T04:39:02.967Z,67.70
2019-04-22T04:40:12.591Z,67.60
2019-04-22T04:41:19.381Z,67.70
2019-04-22T04:44:59.503Z,68.00
2019-04-22T04:46:51.754Z,68.40
2019-04-22T04:49:00.071Z,68.30
2019-04-22T04:51:16.134Z,68.50
2019-04-22T04:52:17.000Z,68.30
2019-04-22T04:53:22.777Z,68.10
2019-04-22T04:54:35.525Z,67.40
2019-04-22T04:55:28.531Z,67.00
2019-04-22T04:56:38.525Z,66.80
2019-04-22T04:58:01.054Z,67.70
2019-04-22T04:58:56.409Z,65.70
2019-04-22T05:00:30.619Z,66.00
2019-04-22T05:02:06.616Z,66.60
2019-04-22T05:03:10.630Z,66.40
2019-04-22T05:05:26.613Z,64.70
2019-04-22T05:06:39.281Z,65.40
2019-04-22T05:07:40.509Z,65.50
2019-04-22T05:09:44.750Z,64.70
2019-04-22T05:11:11.532Z,65.10
2019-04-22T05:15:18.520Z,65.40
2019-04-22T05:17:25.799Z,65.70
2019-04-22T05:19:32.814Z,65.70
2019-04-22T05:20:53.469Z,64.70
2019-04-22T05:21:53.298Z,64.20
2019-04-22T05:22:51.073Z,64.30
2019-04-22T05:24:03.799Z,65.70
2019-04-22T05:26:18.282Z,64.30
2019-04-22T05:27:21.716Z,64.00
2019-04-22T05:28:24.443Z,63.40
2019-04-22T05:29:43.547Z,64.00
2019-04-22T05:30:45.994Z,64.40
2019-04-22T05:31:47.994Z,65.30
2019-04-22T05:33:56.349Z,64.40
2019-04-22T05:34:59.729Z,64.60
2019-04-22T05:36:10.194Z,63.90
2019-04-22T05:37:14.719Z,63.50
2019-04-22T05:38:20.147Z,62.90
2019-04-22T05:39:36.192Z,63.70
2019-04-22T05:40:28.232Z,64.40
2019-04-22T05:41:36.403Z,63.90
2019-04-22T05:42:39.676Z,64.60
2019-04-22T05:43:53.271Z,65.70
2019-04-22T05:44:56.603Z,65.70
2019-04-22T05:46:01.087Z,63.90
2019-04-22T05:47:01.182Z,63.90
2019-04-22T05:48:13.671Z,63.70
2019-04-22T05:50:19.926Z,63.10
2019-04-22T05:51:31.235Z,63.20
2019-04-22T05:52:31.555Z,64.70
2019-04-22T05:53:43.462Z,63.80
2019-04-22T05:54:50.540Z,63.50
2019-04-22T05:56:56.218Z,62.60
2019-04-22T05:58:02.787Z,62.50
2019-04-22T05:59:14.661Z,61.70
2019-04-22T06:00:25.832Z,61.60
2019-04-22T06:02:39.773Z,61.30
2019-04-22T06:03:37.878Z,61.50
2019-04-22T06:04:48.453Z,61.60
2019-04-22T06:06:00.888Z,60.80
2019-04-22T06:06:46.940Z,60.70
2019-04-22T06:08:01.517Z,60.60
2019-04-22T06:09:07.156Z,60.50
2019-04-22T06:11:22.946Z,60.40
2019-04-22T06:12:23.509Z,60.40
2019-04-22T06:13:30.489Z,60.20
2019-04-22T06:14:37.680Z,60.10
2019-04-22T06:15:39.010Z,61.20
2019-04-22T06:16:57.187Z,62.20
2019-04-22T06:18:09.577Z,62.50
2019-04-22T06:19:21.238Z,61.60
2019-04-22T06:20:15.695Z,61.50
2019-04-22T06:21:22.415Z,61.90
2019-04-22T06:23:42.715Z,62.40
2019-04-22T06:24:31.428Z,62.20
2019-04-22T06:27:54.197Z,62.30
2019-04-22T06:29:06.685Z,62.10
2019-04-22T06:30:12.642Z,61.70
2019-04-22T06:31:16.013Z,61.90
2019-04-22T06:32:31.524Z,62.20
2019-04-22T06:33:30.206Z,62.10
2019-04-22T06:34:48.283Z,62.40
2019-04-22T06:38:14.532Z,62.10
2019-04-22T06:38:55.661Z,62.10
2019-04-22T06:40:10.997Z,62.40
2019-04-22T06:42:19.231Z,62.20
2019-04-22T06:43:22.176Z,61.70
2019-04-22T06:46:41.993Z,62.00
2019-04-22T06:48:52.817Z,61.80
2019-04-22T06:49:55.567Z,62.20
2019-04-22T06:51:05.152Z,62.50
2019-04-22T06:52:13.725Z,61.90
2019-04-22T06:53:16.808Z,62.10
2019-04-22T06:54:22.066Z,62.90
2019-04-22T06:55:35.756Z,62.80
2019-04-22T06:56:27.190Z,61.80
2019-04-22T06:57:38.216Z,62.00
2019-04-22T06:58:52.324Z,61.90
2019-04-22T06:59:51.585Z,61.30
2019-04-22T07:00:53.182Z,61.60
2019-04-22T07:03:28.598Z,61.50
2019-04-22T07:04:09.261Z,62.00
2019-04-22T07:05:21.766Z,62.00
2019-04-22T07:07:31.483Z,62.10
2019-04-22T07:09:48.689Z,61.90
2019-04-22T07:10:50.449Z,62.00
2019-04-22T07:12:02.432Z,61.70
2019-04-22T07:13:03.539Z,61.60
2019-04-22T07:15:24.407Z,61.50
2019-04-22T07:16:26.245Z,61.70
2019-04-22T07:17:29.690Z,61.60
2019-04-22T07:18:37.287Z,61.70
2019-04-22T07:19:40.892Z,61.10
2019-04-22T07:20:50.831Z,60.40
2019-04-22T07:21:50.597Z,60.80
2019-04-22T07:23:01.948Z,60.20
2019-04-22T07:24:21.128Z,59.80
2019-04-22T07:25:10.202Z,60.00
2019-04-22T07:26:18.957Z,60.00
2019-04-22T07:27:21.701Z,60.30
2019-04-22T07:28:27.384Z,60.90
2019-04-22T07:29:36.257Z,61.20
2019-04-22T07:30:41.072Z,61.30
2019-04-22T07:31:49.849Z,60.70
2019-04-22T07:33:11.427Z,60.70
2019-04-22T07:33:58.469Z,60.20
2019-04-22T07:35:08.548Z,60.00
2019-04-22T07:37:29.604Z,60.80
2019-04-22T07:38:29.934Z,60.50
2019-04-22T07:39:29.709Z,61.40
2019-04-22T07:40:38.952Z,60.20
2019-04-22T07:44:54.770Z,60.60
2019-04-22T07:46:18.746Z,60.20
2019-04-22T07:48:26.560Z,60.70
2019-04-22T07:49:25.830Z,60.40
2019-04-22T07:50:43.077Z,60.80
2019-04-22T07:51:32.603Z,61.50
2019-04-22T07:52:38.628Z,60.80
2019-04-22T07:53:40.593Z,60.80
2019-04-22T07:54:52.548Z,61.20
2019-04-22T07:56:01.691Z,60.80
2019-04-22T07:57:08.746Z,61.00
2019-04-22T07:58:11.876Z,60.90
2019-04-22T07:59:18.613Z,61.50
2019-04-22T08:00:28.048Z,60.90
2019-04-22T08:01:28.010Z,60.40
2019-04-22T08:02:37.871Z,60.00
2019-04-22T08:03:51.767Z,59.30
2019-04-22T08:04:59.016Z,59.30
2019-04-22T08:06:02.555Z,59.40
2019-04-22T08:06:58.934Z,59.40
2019-04-22T08:08:10.931Z,59.60
2019-04-22T08:09:15.279Z,59.20
2019-04-22T08:10:23.804Z,59.20
2019-04-22T08:11:37.547Z,59.90
2019-04-22T08:12:36.557Z,59.90
2019-04-22T08:13:38.551Z,60.30
2019-04-22T08:14:42.183Z,59.80
2019-04-22T08:15:45.465Z,59.60
2019-04-22T08:17:01.381Z,59.50
2019-04-22T08:18:06.830Z,59.70
2019-04-22T08:19:10.574Z,59.70
2019-04-22T08:20:09.257Z,59.90
2019-04-22T08:21:12.378Z,60.30
2019-04-22T08:22:24.021Z,60.40
2019-04-22T08:23:33.629Z,60.00
2019-04-22T08:24:42.055Z,60.80
2019-04-22T08:25:45.752Z,60.80
2019-04-22T08:26:52.021Z,60.90
2019-04-22T08:27:56.848Z,61.00
2019-04-22T08:28:59.060Z,61.20
2019-04-22T08:30:14.432Z,60.60
2019-04-22T08:31:14.567Z,60.40
2019-04-22T08:32:21.929Z,60.30
2019-04-22T08:33:29.458Z,60.80
2019-04-22T08:34:35.747Z,62.20
2019-04-22T08:35:52.520Z,61.40
2019-04-22T08:36:58.877Z,61.30
2019-04-22T08:37:51.201Z,61.40
2019-04-22T08:40:09.552Z,59.80
2019-04-22T08:41:28.442Z,59.50
2019-04-22T08:42:34.971Z,59.50
2019-04-22T08:43:36.491Z,59.50
2019-04-22T08:45:50.033Z,59.40
2019-04-22T08:46:56.182Z,60.40
2019-04-22T08:47:57.629Z,60.70
2019-04-22T08:49:16.439Z,59.10
2019-04-22T08:51:21.091Z,56.50
2019-04-22T08:52:20.828Z,52.70
2019-04-22T08:53:34.299Z,51.90
2019-04-22T08:54:37.663Z,51.60
2019-04-22T08:55:54.168Z,52.70
2019-04-22T08:56:45.021Z,52.40
2019-04-22T08:58:08.447Z,53.50
2019-04-22T08:59:01.995Z,53.80
2019-04-22T09:00:04.038Z,52.90
2019-04-22T09:01:13.651Z,53.90
2019-04-22T09:02:20.492Z,52.90
2019-04-22T09:03:17.353Z,53.80
2019-04-22T09:04:27.881Z,54.40
2019-04-22T09:07:07.704Z,55.20
2019-04-22T09:07:46.967Z,53.60
2019-04-22T09:08:55.198Z,52.90
2019-04-22T09:09:55.650Z,53.30
2019-04-22T09:11:11.339Z,54.40
2019-04-22T09:12:15.951Z,55.50
2019-04-22T09:13:26.294Z,55.40
2019-04-22T09:14:26.149Z,54.10
2019-04-22T09:15:30.414Z,52.80
2019-04-22T09:16:39.638Z,52.40
2019-04-22T09:17:40.329Z,53.70
2019-04-22T09:18:48.248Z,54.80
2019-04-22T09:19:56.623Z,54.10
2019-04-22T09:21:07.056Z,55.60
2019-04-22T09:22:09.717Z,56.10
2019-04-22T09:23:17.691Z,55.80
2019-04-22T09:24:16.102Z,55.70
2019-04-22T09:25:26.882Z,56.20
2019-04-22T09:26:34.657Z,57.80
2019-04-22T09:27:41.297Z,57.50
2019-04-22T09:28:48.291Z,57.00
2019-04-22T09:29:43.159Z,56.30
2019-04-22T09:31:02.076Z,56.20
2019-04-22T09:32:08.038Z,56.10
2019-04-22T09:33:14.060Z,58.20
2019-04-22T09:34:14.023Z,59.40
2019-04-22T09:35:30.489Z,58.90
2019-04-22T09:36:33.984Z,57.90
2019-04-22T09:37:39.203Z,58.70
2019-04-22T09:39:51.662Z,59.40
2019-04-22T09:40:52.515Z,58.70
2019-04-22T09:41:57.152Z,58.10
2019-04-22T09:43:04.944Z,57.10
2019-04-22T09:44:09.355Z,55.20
2019-04-22T09:45:15.155Z,55.30
2019-04-22T09:46:25.021Z,54.00
2019-04-22T09:48:37.551Z,54.70
2019-04-22T09:50:48.217Z,55.30
2019-04-22T09:51:54.186Z,56.00
2019-04-22T09:53:02.120Z,54.90
2019-04-22T09:54:10.050Z,55.60
2019-04-22T09:55:22.730Z,56.00
2019-04-22T09:56:18.085Z,56.80
2019-04-22T09:57:20.979Z,56.40
2019-04-22T09:58:32.076Z,54.60
2019-04-22T09:59:40.937Z,55.20
2019-04-22T10:00:43.026Z,54.90
2019-04-22T10:01:59.380Z,55.00
2019-04-22T10:03:00.930Z,55.60
2019-04-22T10:04:00.813Z,56.70
2019-04-22T10:05:07.600Z,55.10
2019-04-22T10:06:17.327Z,55.70
2019-04-22T10:07:23.928Z,55.30
2019-04-22T10:08:33.960Z,54.50
2019-04-22T10:10:38.071Z,54.10
2019-04-22T10:13:03.154Z,55.70
2019-04-22T10:14:03.915Z,54.60
2019-04-22T10:14:54.017Z,55.20
2019-04-22T10:16:10.782Z,55.50
2019-04-22T10:17:08.107Z,55.90
2019-04-22T10:18:20.318Z,56.40
2019-04-22T10:19:23.200Z,56.20
2019-04-22T10:20:36.320Z,55.30
2019-04-22T10:21:40.074Z,55.60
2019-04-22T10:23:47.237Z,56.60
2019-04-22T10:24:53.195Z,56.50
2019-04-22T10:25:57.438Z,56.20
2019-04-22T10:27:01.733Z,55.80
2019-04-22T10:28:14.733Z,55.60
2019-04-22T10:29:20.291Z,55.00
2019-04-22T10:30:34.187Z,51.70
2019-04-22T10:31:36.977Z,50.70
2019-04-22T10:32:35.349Z,51.10
2019-04-22T10:33:36.291Z,51.30
2019-04-22T10:34:34.058Z,50.10
2019-04-22T10:35:32.228Z,49.90
2019-04-22T10:36:37.703Z,50.60
2019-04-22T10:37:42.766Z,50.60
2019-04-22T10:38:48.579Z,50.70
2019-04-22T10:39:58.564Z,50.80
2019-04-22T10:41:00.696Z,50.80
2019-04-22T10:42:05.058Z,50.30
2019-04-22T10:43:11.506Z,51.20
2019-04-22T10:44:17.048Z,51.50
2019-04-22T10:45:21.947Z,51.70
2019-04-22T10:46:26.534Z,52.30
2019-04-22T10:47:32.032Z,51.40
2019-04-22T10:48:36.700Z,49.70
2019-04-22T10:49:42.448Z,48.90
2019-04-22T10:50:48.787Z,50.60
2019-04-22T10:51:53.102Z,49.60
2019-04-22T10:52:57.459Z,48.20
2019-04-22T10:54:01.941Z,48.40
2019-04-22T10:55:07.531Z,48.00
2019-04-22T10:56:12.724Z,49.60
2019-04-22T10:57:18.156Z,49.70
2019-04-22T10:58:22.970Z,50.20
2019-04-22T10:59:27.260Z,50.00
2019-04-22T11:00:31.761Z,50.00
2019-04-22T11:01:38.496Z,50.10
2019-04-22T11:02:43.601Z,50.30
2019-04-22T11:04:56.349Z,51.10
2019-04-22T11:06:01.266Z,50.70
2019-04-22T11:07:10.501Z,49.80
2019-04-22T11:08:20.363Z,51.00
2019-04-22T11:09:20.365Z,50.60
2019-04-22T11:10:36.801Z,50.90
2019-04-22T11:11:42.061Z,50.90
2019-04-22T11:12:38.037Z,51.70
2019-04-22T11:13:44.053Z,51.80
2019-04-22T11:14:49.718Z,51.70
2019-04-22T11:15:55.027Z,52.30
2019-04-22T11:17:02.262Z,52.40
2019-04-22T11:18:07.353Z,52.60
2019-04-22T11:19:11.927Z,52.50
2019-04-22T11:20:17.664Z,52.80
2019-04-22T11:21:23.240Z,52.90
2019-04-22T11:22:32.226Z,52.10
2019-04-22T11:23:34.414Z,52.40
2019-04-22T11:24:38.973Z,52.20
2019-04-22T11:25:43.921Z,52.40
2019-04-22T11:26:49.293Z,52.60
2019-04-22T11:27:53.805Z,53.30
2019-04-22T11:28:59.361Z,53.00
2019-04-22T11:30:05.780Z,53.40
2019-04-22T11:31:10.509Z,53.50
2019-04-22T11:32:14.971Z,53.10
2019-04-22T11:33:20.445Z,53.80
2019-04-22T11:34:26.824Z,53.80
2019-04-22T11:35:32.072Z,54.50
2019-04-22T11:36:37.049Z,54.50
2019-04-22T11:37:42.529Z,53.70
2019-04-22T11:38:55.264Z,54.00
2019-04-22T11:40:04.620Z,54.00
2019-04-22T11:41:00.041Z,54.20
2019-04-22T11:42:05.163Z,55.00
2019-04-22T11:43:10.236Z,55.50
2019-04-22T11:44:15.121Z,55.50
2019-04-22T11:45:21.576Z,55.80
2019-04-22T11:46:27.243Z,56.20
2019-04-22T11:47:33.088Z,57.00
2019-04-22T11:48:38.114Z,56.50
2019-04-22T11:49:43.808Z,54.50
2019-04-22T11:50:48.206Z,55.10
2019-04-22T11:51:54.119Z,55.80
2019-04-22T11:52:58.665Z,56.30
2019-04-22T11:54:03.102Z,55.50
2019-04-22T11:55:08.703Z,54.40
2019-04-22T11:56:13.270Z,53.30
2019-04-22T11:57:19.039Z,53.80
2019-04-22T11:58:24.635Z,54.10
2019-04-22T11:59:29.081Z,54.40
2019-04-22T12:00:34.978Z,54.60
2019-04-22T12:01:39.624Z,54.20
2019-04-22T12:02:44.886Z,55.00
2019-04-22T12:03:49.564Z,55.30
2019-04-22T12:04:54.028Z,55.20
2019-04-22T12:05:59.749Z,55.70
2019-04-22T12:07:05.898Z,56.00
2019-04-22T12:08:11.253Z,56.40
2019-04-22T12:09:17.718Z,56.60
2019-04-22T12:10:29.859Z,56.80
2019-04-22T12:11:28.571Z,57.30
2019-04-22T12:12:32.863Z,57.50
2019-04-22T12:13:37.938Z,57.50
2019-04-22T12:14:42.485Z,57.10
2019-04-22T12:15:46.862Z,57.20
2019-04-22T12:16:51.373Z,58.00
2019-04-22T12:17:57.289Z,57.00
2019-04-22T12:19:02.959Z,57.40
2019-04-22T12:20:12.306Z,57.60
2019-04-22T12:21:15.333Z,57.10
2019-04-22T12:22:20.882Z,57.50
2019-04-22T12:23:25.308Z,57.80
2019-04-22T12:24:30.231Z,57.20
2019-04-22T12:25:46.356Z,57.80
2019-04-22T12:26:42.363Z,58.50
2019-04-22T12:27:47.302Z,57.60
2019-04-22T12:28:53.064Z,55.10
2019-04-22T12:29:58.743Z,56.20
2019-04-22T12:31:03.715Z,56.90
2019-04-22T12:32:09.427Z,56.50
2019-04-22T12:33:14.975Z,55.90
2019-04-22T12:34:19.686Z,55.10
2019-04-22T12:35:24.353Z,56.30
2019-04-22T12:36:28.854Z,57.10
2019-04-22T12:37:40.745Z,56.50
2019-04-22T12:38:39.917Z,55.50
2019-04-22T12:39:45.363Z,55.50
2019-04-22T12:40:56.579Z,57.20
2019-04-22T12:41:56.216Z,57.00
2019-04-22T12:43:04.131Z,57.00
2019-04-22T12:44:07.538Z,55.80
2019-04-22T12:45:13.912Z,56.00
2019-04-22T12:46:18.589Z,57.20
2019-04-22T12:47:24.359Z,57.20
2019-04-22T12:48:28.789Z,57.70
2019-04-22T12:49:35.629Z,57.00
2019-04-22T12:50:42.414Z,55.20
2019-04-22T12:51:45.441Z,56.80
2019-04-22T12:52:55.406Z,56.30
2019-04-22T12:53:57.076Z,56.70
2019-04-22T12:55:01.688Z,56.40
2019-04-22T12:56:07.040Z,57.00
2019-04-22T12:57:12.337Z,55.50
2019-04-22T12:58:17.973Z,55.50
2019-04-22T12:59:23.678Z,55.40
2019-04-22T13:00:30.034Z,56.20
2019-04-22T13:01:35.066Z,56.60
2019-04-22T13:02:40.822Z,57.40
2019-04-22T13:03:46.213Z,54.80
2019-04-22T13:04:52.016Z,54.40
2019-04-22T13:05:57.420Z,52.00
2019-04-22T13:07:01.975Z,53.10
2019-04-22T13:08:07.579Z,54.30
2019-04-22T13:09:12.682Z,54.90
2019-04-22T13:10:19.971Z,56.20
2019-04-22T13:11:30.478Z,56.40
2019-04-22T13:12:31.102Z,56.70
2019-04-22T13:13:36.729Z,56.60
2019-04-22T13:14:41.202Z,56.80
2019-04-22T13:15:46.691Z,56.50
2019-04-22T13:16:51.264Z,55.30
2019-04-22T13:18:05.763Z,55.60
2019-04-22T13:19:05.706Z,57.20
2019-04-22T13:20:09.745Z,55.50
2019-04-22T13:21:14.968Z,55.10
2019-04-22T13:22:21.075Z,55.00
2019-04-22T13:23:25.632Z,54.60
2019-04-22T13:24:30.184Z,55.80
2019-04-22T13:25:34.765Z,56.30
2019-04-22T13:26:39.109Z,55.70
2019-04-22T13:27:44.815Z,55.50
2019-04-22T13:28:49.336Z,56.80
2019-04-22T13:29:55.070Z,56.70
2019-04-22T13:31:01.780Z,57.10
2019-04-22T13:32:06.886Z,57.10
2019-04-22T13:33:12.532Z,55.80
2019-04-22T13:34:24.347Z,57.10
2019-04-22T13:35:24.684Z,56.60
2019-04-22T13:36:31.676Z,56.60
2019-04-22T13:37:37.003Z,55.30
2019-04-22T13:38:42.858Z,54.60
2019-04-22T13:39:47.371Z,53.10
2019-04-22T13:41:12.520Z,54.20
2019-04-22T13:42:02.267Z,55.10
2019-04-22T13:43:04.619Z,55.90
2019-04-22T13:44:09.297Z,54.80
2019-04-22T13:45:13.863Z,56.50
2019-04-22T13:46:18.082Z,56.30
2019-04-22T13:47:37.372Z,56.40
2019-04-22T13:48:49.903Z,53.10
2019-04-22T13:50:11.744Z,54.70
2019-04-22T13:52:21.058Z,56.20
2019-04-22T13:55:32.846Z,56.70
2019-04-22T13:56:30.436Z,57.10
2019-04-22T13:57:35.917Z,57.30
2019-04-22T13:58:38.242Z,55.50
2019-04-22T13:59:36.599Z,54.90
2019-04-22T14:00:36.277Z,55.40
2019-04-22T14:02:04.260Z,53.90
2019-04-22T14:03:35.565Z,55.80
2019-04-22T14:04:41.173Z,55.80
2019-04-22T14:05:46.760Z,54.60
2019-04-22T14:06:52.442Z,56.00
2019-04-22T14:07:58.821Z,54.40
2019-04-22T14:09:03.237Z,54.90
2019-04-22T14:10:08.670Z,52.50
2019-04-22T14:11:23.014Z,54.40
2019-04-22T14:12:20.355Z,53.10
2019-04-22T14:13:25.860Z,53.90
2019-04-22T14:14:30.320Z,54.90
2019-04-22T14:15:36.491Z,55.20
2019-04-22T14:16:40.971Z,56.40
2019-04-22T14:17:45.414Z,56.60
2019-04-22T14:18:49.929Z,56.60
2019-04-22T14:19:54.991Z,56.70
2019-04-22T14:21:00.801Z,57.50
2019-04-22T14:22:07.467Z,56.00
2019-04-22T14:23:13.695Z,56.70
2019-04-22T14:24:19.626Z,56.90
2019-04-22T14:25:24.851Z,57.00
2019-04-22T14:26:44.172Z,57.40
2019-04-22T14:27:47.518Z,58.40
2019-04-22T14:28:41.664Z,58.50
2019-04-22T14:29:47.188Z,57.70
2019-04-22T14:30:52.668Z,57.30
2019-04-22T14:32:06.927Z,56.20
2019-04-22T14:33:04.814Z,56.30
2019-04-22T14:34:10.187Z,57.20
2019-04-22T14:35:15.849Z,57.50
2019-04-22T14:36:21.371Z,56.80
2019-04-22T14:37:25.595Z,56.10
2019-04-22T14:38:30.267Z,57.20
2019-04-22T14:39:35.792Z,56.60
2019-04-22T14:40:41.450Z,58.10
2019-04-22T14:42:12.377Z,57.80
2019-04-22T14:43:17.631Z,57.90
2019-04-22T14:44:56.376Z,58.00
2019-04-22T14:45:30.403Z,57.90
2019-04-22T14:47:39.413Z,55.80
2019-04-22T14:48:45.892Z,56.00
2019-04-22T14:49:56.039Z,56.10
2019-04-22T14:50:53.179Z,55.20
2019-04-22T14:52:10.686Z,56.50
2019-04-22T14:53:09.838Z,57.20
2019-04-22T14:54:09.820Z,57.40
2019-04-22T14:55:08.023Z,55.00
2019-04-22T14:56:06.498Z,55.20
2019-04-22T14:57:12.864Z,56.40
2019-04-22T14:58:17.453Z,56.30
2019-04-22T14:59:22.886Z,56.80
2019-04-22T15:00:27.844Z,56.90
2019-04-22T15:01:32.912Z,57.10
2019-04-22T15:02:37.551Z,56.70
2019-04-22T15:03:47.976Z,56.70
2019-04-22T15:04:52.223Z,57.30
2019-04-22T15:05:57.952Z,57.30
2019-04-22T15:07:03.090Z,57.80
2019-04-22T15:08:08.850Z,57.00
2019-04-22T15:09:14.412Z,55.60
2019-04-22T15:10:22.089Z,55.60
2019-04-22T15:11:26.863Z,57.00
2019-04-22T15:12:39.278Z,57.10
2019-04-22T15:13:37.096Z,57.60
2019-04-22T15:14:41.687Z,57.70
2019-04-22T15:16:03.985Z,57.90
2019-04-22T15:17:27.181Z,55.90
2019-04-22T15:18:37.891Z,53.30
2019-04-22T15:20:03.969Z,56.20
2019-04-22T15:21:14.491Z,55.80
2019-04-22T15:22:18.858Z,56.30
2019-04-22T15:23:24.652Z,57.00
2019-04-22T15:24:29.536Z,56.90
2019-04-22T15:25:34.877Z,56.00
2019-04-22T15:26:40.134Z,57.20
2019-04-22T15:27:45.795Z,57.30
2019-04-22T15:28:51.399Z,56.60
2019-04-22T15:29:57.000Z,57.30
2019-04-22T15:31:01.588Z,57.00
2019-04-22T15:32:07.383Z,54.20
2019-04-22T15:33:11.908Z,54.40
2019-04-22T15:34:16.345Z,56.00
2019-04-22T15:35:20.624Z,56.40
2019-04-22T15:36:26.134Z,56.10
2019-04-22T15:37:31.138Z,55.20
2019-04-22T15:38:36.496Z,56.50
2019-04-22T15:39:41.533Z,56.80
2019-04-22T15:40:46.940Z,57.50
2019-04-22T15:42:01.510Z,57.50
2019-04-22T15:42:59.064Z,57.70
2019-04-22T15:44:03.735Z,57.20
2019-04-22T15:45:09.038Z,57.20
2019-04-22T15:46:14.230Z,57.40
2019-04-22T15:47:18.919Z,57.90
2019-04-22T15:48:24.954Z,57.30
2019-04-22T15:49:29.741Z,57.00
2019-04-22T15:50:35.065Z,54.00
2019-04-22T15:51:40.783Z,53.30
2019-04-22T15:52:50.018Z,53.80
2019-04-22T15:53:51.924Z,55.70
2019-04-22T15:54:56.445Z,54.40